sensor_id;sensor_type;location;lat;lon;timestamp;temperature;humidity
62464;SHT31;48512;48.552;9.380;2024-02-21T00:01:42;5.17;86.47
62464;SHT31;48512;48.552;9.380;2024-02-21T00:04:08;5.20;86.28
62464;SHT31;48512;48.552;9.380;2024-02-21T00:06:35;5.24;86.36
62464;SHT31;48512;48.552;9.380;2024-02-21T00:09:01;5.22;86.24
62464;SHT31;48512;48.552;9.380;2024-02-21T00:11:28;5.28;86.43
62464;SHT31;48512;48.552;9.380;2024-02-21T00:13:54;5.30;86.41
62464;SHT31;48512;48.552;9.380;2024-02-21T00:16:20;5.30;86.59
62464;SHT31;48512;48.552;9.380;2024-02-21T00:18:47;5.36;85.52
62464;SHT31;48512;48.552;9.380;2024-02-21T00:21:13;5.34;85.19
62464;SHT31;48512;48.552;9.380;2024-02-21T00:23:44;5.41;85.38
62464;SHT31;48512;48.552;9.380;2024-02-21T00:26:13;5.50;84.05
62464;SHT31;48512;48.552;9.380;2024-02-21T00:28:40;5.55;84.31
62464;SHT31;48512;48.552;9.380;2024-02-21T00:31:06;5.58;83.95
62464;SHT31;48512;48.552;9.380;2024-02-21T00:33:32;5.72;83.06
62464;SHT31;48512;48.552;9.380;2024-02-21T00:35:58;5.75;82.99
62464;SHT31;48512;48.552;9.380;2024-02-21T00:38:24;5.81;82.39
62464;SHT31;48512;48.552;9.380;2024-02-21T00:40:50;5.84;82.85
62464;SHT31;48512;48.552;9.380;2024-02-21T00:43:16;5.84;83.15
62464;SHT31;48512;48.552;9.380;2024-02-21T00:45:42;5.85;83.30
62464;SHT31;48512;48.552;9.380;2024-02-21T00:48:08;5.85;83.54
62464;SHT31;48512;48.552;9.380;2024-02-21T00:50:35;5.85;83.66
62464;SHT31;48512;48.552;9.380;2024-02-21T00:53:03;5.82;83.67
62464;SHT31;48512;48.552;9.380;2024-02-21T00:55:29;5.86;83.66
62464;SHT31;48512;48.552;9.380;2024-02-21T00:57:55;5.89;84.03
62464;SHT31;48512;48.552;9.380;2024-02-21T01:00:21;5.88;83.97
62464;SHT31;48512;48.552;9.380;2024-02-21T01:02:48;5.86;83.58
62464;SHT31;48512;48.552;9.380;2024-02-21T01:05:14;5.89;83.91
62464;SHT31;48512;48.552;9.380;2024-02-21T01:07:40;5.85;84.05
62464;SHT31;48512;48.552;9.380;2024-02-21T01:10:07;5.84;84.06
62464;SHT31;48512;48.552;9.380;2024-02-21T01:12:33;5.89;84.13
62464;SHT31;48512;48.552;9.380;2024-02-21T01:14:59;5.89;83.99
62464;SHT31;48512;48.552;9.380;2024-02-21T01:17:25;5.92;84.01
62464;SHT31;48512;48.552;9.380;2024-02-21T01:19:51;5.91;84.21
62464;SHT31;48512;48.552;9.380;2024-02-21T01:22:17;5.89;84.39
62464;SHT31;48512;48.552;9.380;2024-02-21T01:24:44;5.84;84.45
62464;SHT31;48512;48.552;9.380;2024-02-21T01:27:10;5.84;84.33
62464;SHT31;48512;48.552;9.380;2024-02-21T01:29:36;5.85;84.56
62464;SHT31;48512;48.552;9.380;2024-02-21T01:32:02;5.88;84.26
62464;SHT31;48512;48.552;9.380;2024-02-21T01:34:28;5.88;84.20
62464;SHT31;48512;48.552;9.380;2024-02-21T01:36:54;5.89;83.84
62464;SHT31;48512;48.552;9.380;2024-02-21T01:39:20;5.91;83.98
62464;SHT31;48512;48.552;9.380;2024-02-21T01:41:46;5.89;83.98
62464;SHT31;48512;48.552;9.380;2024-02-21T01:44:12;5.88;84.20
62464;SHT31;48512;48.552;9.380;2024-02-21T01:46:38;5.86;84.64
62464;SHT31;48512;48.552;9.380;2024-02-21T01:49:04;5.84;84.31
62464;SHT31;48512;48.552;9.380;2024-02-21T01:51:31;5.84;84.46
62464;SHT31;48512;48.552;9.380;2024-02-21T01:53:57;5.84;84.12
62464;SHT31;48512;48.552;9.380;2024-02-21T01:56:24;5.89;83.19
62464;SHT31;48512;48.552;9.380;2024-02-21T01:58:51;5.93;82.73
62464;SHT31;48512;48.552;9.380;2024-02-21T02:01:17;5.93;82.93
62464;SHT31;48512;48.552;9.380;2024-02-21T02:03:45;5.99;83.63
62464;SHT31;48512;48.552;9.380;2024-02-21T02:06:12;5.95;83.51
62464;SHT31;48512;48.552;9.380;2024-02-21T02:08:38;5.95;83.59
62464;SHT31;48512;48.552;9.380;2024-02-21T02:11:04;5.93;83.70
62464;SHT31;48512;48.552;9.380;2024-02-21T02:13:30;5.92;83.13
62464;SHT31;48512;48.552;9.380;2024-02-21T02:15:56;5.89;83.38
62464;SHT31;48512;48.552;9.380;2024-02-21T02:18:23;5.89;83.64
62464;SHT31;48512;48.552;9.380;2024-02-21T02:20:49;5.91;83.10
62464;SHT31;48512;48.552;9.380;2024-02-21T02:23:30;5.88;82.92
62464;SHT31;48512;48.552;9.380;2024-02-21T02:26:00;5.89;82.54
62464;SHT31;48512;48.552;9.380;2024-02-21T02:28:27;5.91;82.43
62464;SHT31;48512;48.552;9.380;2024-02-21T02:30:53;5.88;82.40
62464;SHT31;48512;48.552;9.380;2024-02-21T02:33:19;5.91;82.00
62464;SHT31;48512;48.552;9.380;2024-02-21T02:35:45;5.92;81.94
62464;SHT31;48512;48.552;9.380;2024-02-21T02:38:12;5.92;81.97
62464;SHT31;48512;48.552;9.380;2024-02-21T02:40:39;5.95;81.92
62464;SHT31;48512;48.552;9.380;2024-02-21T02:43:06;5.93;82.04
62464;SHT31;48512;48.552;9.380;2024-02-21T02:45:32;5.95;81.99
62464;SHT31;48512;48.552;9.380;2024-02-21T02:47:59;5.95;81.76
62464;SHT31;48512;48.552;9.380;2024-02-21T02:50:27;5.95;81.93
62464;SHT31;48512;48.552;9.380;2024-02-21T02:52:54;5.96;81.64
62464;SHT31;48512;48.552;9.380;2024-02-21T02:55:20;5.98;81.58
62464;SHT31;48512;48.552;9.380;2024-02-21T02:57:46;6.01;81.73
62464;SHT31;48512;48.552;9.380;2024-02-21T03:00:13;6.05;81.53
62464;SHT31;48512;48.552;9.380;2024-02-21T03:02:44;6.07;81.27
62464;SHT31;48512;48.552;9.380;2024-02-21T03:07:39;6.10;81.31
62464;SHT31;48512;48.552;9.380;2024-02-21T03:10:06;6.10;81.33
62464;SHT31;48512;48.552;9.380;2024-02-21T03:12:32;6.14;81.28
62464;SHT31;48512;48.552;9.380;2024-02-21T03:14:58;6.16;81.09
62464;SHT31;48512;48.552;9.380;2024-02-21T03:17:24;6.20;81.09
62464;SHT31;48512;48.552;9.380;2024-02-21T03:19:53;6.23;80.63
62464;SHT31;48512;48.552;9.380;2024-02-21T03:22:19;6.27;80.64
62464;SHT31;48512;48.552;9.380;2024-02-21T03:24:45;6.32;79.73
62464;SHT31;48512;48.552;9.380;2024-02-21T03:27:11;6.33;79.65
62464;SHT31;48512;48.552;9.380;2024-02-21T03:29:38;6.37;79.46
62464;SHT31;48512;48.552;9.380;2024-02-21T03:32:04;6.37;79.67
62464;SHT31;48512;48.552;9.380;2024-02-21T03:34:30;6.41;79.81
62464;SHT31;48512;48.552;9.380;2024-02-21T03:36:56;6.38;79.66
62464;SHT31;48512;48.552;9.380;2024-02-21T03:39:23;6.38;79.15
62464;SHT31;48512;48.552;9.380;2024-02-21T03:41:49;6.43;78.48
62464;SHT31;48512;48.552;9.380;2024-02-21T03:44:15;6.48;77.72
62464;SHT31;48512;48.552;9.380;2024-02-21T03:46:41;6.47;77.54
62464;SHT31;48512;48.552;9.380;2024-02-21T03:49:07;6.45;77.68
62464;SHT31;48512;48.552;9.380;2024-02-21T03:51:33;6.47;78.01
62464;SHT31;48512;48.552;9.380;2024-02-21T03:53:59;6.47;77.61
62464;SHT31;48512;48.552;9.380;2024-02-21T03:56:25;6.44;77.63
62464;SHT31;48512;48.552;9.380;2024-02-21T03:58:51;6.41;77.60
62464;SHT31;48512;48.552;9.380;2024-02-21T04:01:17;6.44;77.65
62464;SHT31;48512;48.552;9.380;2024-02-21T04:03:44;6.37;77.98
62464;SHT31;48512;48.552;9.380;2024-02-21T04:06:10;6.34;78.07
62464;SHT31;48512;48.552;9.380;2024-02-21T04:08:36;6.30;78.19
62464;SHT31;48512;48.552;9.380;2024-02-21T04:11:02;6.27;78.20
62464;SHT31;48512;48.552;9.380;2024-02-21T04:13:28;6.24;78.46
62464;SHT31;48512;48.552;9.380;2024-02-21T04:15:55;6.20;78.38
62464;SHT31;48512;48.552;9.380;2024-02-21T04:18:21;6.16;78.49
62464;SHT31;48512;48.552;9.380;2024-02-21T04:20:47;6.14;78.72
62464;SHT31;48512;48.552;9.380;2024-02-21T04:23:13;6.14;78.62
62464;SHT31;48512;48.552;9.380;2024-02-21T04:25:40;6.10;78.91
62464;SHT31;48512;48.552;9.380;2024-02-21T04:28:06;6.09;78.98
62464;SHT31;48512;48.552;9.380;2024-02-21T04:30:32;6.07;79.21
62464;SHT31;48512;48.552;9.380;2024-02-21T04:32:58;6.03;79.41
62464;SHT31;48512;48.552;9.380;2024-02-21T04:35:24;5.98;79.72
62464;SHT31;48512;48.552;9.380;2024-02-21T04:37:50;5.95;79.69
62464;SHT31;48512;48.552;9.380;2024-02-21T04:40:16;5.93;80.12
62464;SHT31;48512;48.552;9.380;2024-02-21T04:42:43;5.85;80.52
62464;SHT31;48512;48.552;9.380;2024-02-21T04:45:10;5.82;80.55
62464;SHT31;48512;48.552;9.380;2024-02-21T04:47:36;5.84;80.28
62464;SHT31;48512;48.552;9.380;2024-02-21T04:50:02;5.82;80.33
62464;SHT31;48512;48.552;9.380;2024-02-21T04:52:28;5.82;80.23
62464;SHT31;48512;48.552;9.380;2024-02-21T04:54:55;5.86;80.28
62464;SHT31;48512;48.552;9.380;2024-02-21T04:57:21;5.89;80.25
62464;SHT31;48512;48.552;9.380;2024-02-21T04:59:48;5.89;79.22
62464;SHT31;48512;48.552;9.380;2024-02-21T05:02:14;5.92;79.45
62464;SHT31;48512;48.552;9.380;2024-02-21T05:04:40;5.92;79.35
62464;SHT31;48512;48.552;9.380;2024-02-21T05:07:07;5.86;78.82
62464;SHT31;48512;48.552;9.380;2024-02-21T05:09:34;5.88;78.63
62464;SHT31;48512;48.552;9.380;2024-02-21T05:12:00;5.88;78.65
62464;SHT31;48512;48.552;9.380;2024-02-21T05:14:26;5.92;78.00
62464;SHT31;48512;48.552;9.380;2024-02-21T05:16:55;5.95;78.07
62464;SHT31;48512;48.552;9.380;2024-02-21T05:19:21;5.91;78.20
62464;SHT31;48512;48.552;9.380;2024-02-21T05:21:47;5.93;78.12
62464;SHT31;48512;48.552;9.380;2024-02-21T05:24:13;5.89;78.19
62464;SHT31;48512;48.552;9.380;2024-02-21T05:26:39;5.85;77.82
62464;SHT31;48512;48.552;9.380;2024-02-21T05:29:05;5.88;77.53
62464;SHT31;48512;48.552;9.380;2024-02-21T05:34:18;5.88;78.25
62464;SHT31;48512;48.552;9.380;2024-02-21T05:36:44;5.84;78.35
62464;SHT31;48512;48.552;9.380;2024-02-21T05:39:10;5.78;77.91
62464;SHT31;48512;48.552;9.380;2024-02-21T05:41:36;5.79;78.38
62464;SHT31;48512;48.552;9.380;2024-02-21T05:44:02;5.75;78.46
62464;SHT31;48512;48.552;9.380;2024-02-21T05:46:29;5.71;78.50
62464;SHT31;48512;48.552;9.380;2024-02-21T05:48:55;5.65;78.75
62464;SHT31;48512;48.552;9.380;2024-02-21T05:51:21;5.54;79.03
62464;SHT31;48512;48.552;9.380;2024-02-21T05:53:47;5.46;79.37
62464;SHT31;48512;48.552;9.380;2024-02-21T05:56:14;5.37;79.88
62464;SHT31;48512;48.552;9.380;2024-02-21T05:58:40;5.27;80.20
62464;SHT31;48512;48.552;9.380;2024-02-21T06:01:07;5.20;80.48
62464;SHT31;48512;48.552;9.380;2024-02-21T06:03:34;5.16;80.59
62464;SHT31;48512;48.552;9.380;2024-02-21T06:06:00;5.10;80.75
62464;SHT31;48512;48.552;9.380;2024-02-21T06:08:26;5.03;80.94
62464;SHT31;48512;48.552;9.380;2024-02-21T06:10:52;4.97;81.23
62464;SHT31;48512;48.552;9.380;2024-02-21T06:13:21;4.97;81.41
62464;SHT31;48512;48.552;9.380;2024-02-21T06:15:47;4.95;81.26
62464;SHT31;48512;48.552;9.380;2024-02-21T06:18:14;5.01;81.11
62464;SHT31;48512;48.552;9.380;2024-02-21T06:20:40;5.07;80.83
62464;SHT31;48512;48.552;9.380;2024-02-21T06:23:06;5.15;80.60
62464;SHT31;48512;48.552;9.380;2024-02-21T06:25:32;5.19;80.11
62464;SHT31;48512;48.552;9.380;2024-02-21T06:27:59;5.23;80.09
62464;SHT31;48512;48.552;9.380;2024-02-21T06:30:25;5.26;80.15
62464;SHT31;48512;48.552;9.380;2024-02-21T06:32:51;5.22;80.09
62464;SHT31;48512;48.552;9.380;2024-02-21T06:35:20;5.23;80.33
62464;SHT31;48512;48.552;9.380;2024-02-21T06:37:46;5.24;80.41
62464;SHT31;48512;48.552;9.380;2024-02-21T06:40:17;5.24;80.92
62464;SHT31;48512;48.552;9.380;2024-02-21T06:42:43;5.20;80.57
62464;SHT31;48512;48.552;9.380;2024-02-21T06:45:09;5.16;80.65
62464;SHT31;48512;48.552;9.380;2024-02-21T06:47:35;5.19;80.80
62464;SHT31;48512;48.552;9.380;2024-02-21T06:50:02;5.20;81.08
62464;SHT31;48512;48.552;9.380;2024-02-21T06:52:28;5.22;81.16
62464;SHT31;48512;48.552;9.380;2024-02-21T06:54:54;5.16;80.82
62464;SHT31;48512;48.552;9.380;2024-02-21T06:57:20;5.16;81.07
62464;SHT31;48512;48.552;9.380;2024-02-21T06:59:46;5.06;81.55
62464;SHT31;48512;48.552;9.380;2024-02-21T07:02:12;5.05;81.82
62464;SHT31;48512;48.552;9.380;2024-02-21T07:04:38;5.03;82.10
62464;SHT31;48512;48.552;9.380;2024-02-21T07:07:05;5.06;82.22
62464;SHT31;48512;48.552;9.380;2024-02-21T07:09:31;4.99;82.32
62464;SHT31;48512;48.552;9.380;2024-02-21T07:11:58;4.93;82.26
62464;SHT31;48512;48.552;9.380;2024-02-21T07:14:24;4.85;82.62
62464;SHT31;48512;48.552;9.380;2024-02-21T07:16:51;4.79;83.08
62464;SHT31;48512;48.552;9.380;2024-02-21T07:19:17;4.71;83.49
62464;SHT31;48512;48.552;9.380;2024-02-21T07:21:43;4.68;83.66
62464;SHT31;48512;48.552;9.380;2024-02-21T07:24:09;4.65;83.83
62464;SHT31;48512;48.552;9.380;2024-02-21T07:26:36;4.65;83.94
62464;SHT31;48512;48.552;9.380;2024-02-21T07:29:02;4.72;84.03
62464;SHT31;48512;48.552;9.380;2024-02-21T07:31:28;4.71;84.13
62464;SHT31;48512;48.552;9.380;2024-02-21T07:33:54;4.75;83.93
62464;SHT31;48512;48.552;9.380;2024-02-21T07:36:30;4.88;83.99
62464;SHT31;48512;48.552;9.380;2024-02-21T07:38:59;4.97;83.96
62464;SHT31;48512;48.552;9.380;2024-02-21T07:41:25;5.07;83.67
62464;SHT31;48512;48.552;9.380;2024-02-21T07:43:52;5.17;83.39
62464;SHT31;48512;48.552;9.380;2024-02-21T07:46:18;5.26;83.65
62464;SHT31;48512;48.552;9.380;2024-02-21T07:48:48;5.37;83.42
62464;SHT31;48512;48.552;9.380;2024-02-21T07:51:14;5.46;83.75
62464;SHT31;48512;48.552;9.380;2024-02-21T07:53:42;5.59;83.68
62464;SHT31;48512;48.552;9.380;2024-02-21T07:56:11;5.68;83.43
62464;SHT31;48512;48.552;9.380;2024-02-21T07:58:37;5.75;83.58
62464;SHT31;48512;48.552;9.380;2024-02-21T08:01:04;5.84;83.27
62464;SHT31;48512;48.552;9.380;2024-02-21T08:03:30;5.98;82.35
62464;SHT31;48512;48.552;9.380;2024-02-21T08:05:56;6.14;80.55
62464;SHT31;48512;48.552;9.380;2024-02-21T08:08:22;6.30;79.56
62464;SHT31;48512;48.552;9.380;2024-02-21T08:10:51;6.48;78.38
62464;SHT31;48512;48.552;9.380;2024-02-21T08:13:17;6.67;77.49
62464;SHT31;48512;48.552;9.380;2024-02-21T08:15:44;6.96;79.34
62464;SHT31;48512;48.552;9.380;2024-02-21T08:18:10;7.08;77.01
62464;SHT31;48512;48.552;9.380;2024-02-21T08:20:36;7.16;76.34
62464;SHT31;48512;48.552;9.380;2024-02-21T08:23:02;7.23;75.94
62464;SHT31;48512;48.552;9.380;2024-02-21T08:25:29;7.33;75.29
62464;SHT31;48512;48.552;9.380;2024-02-21T08:27:58;7.42;74.00
62464;SHT31;48512;48.552;9.380;2024-02-21T08:30:24;7.56;73.43
62464;SHT31;48512;48.552;9.380;2024-02-21T08:32:50;7.64;73.22
62464;SHT31;48512;48.552;9.380;2024-02-21T08:35:16;7.74;72.91
62464;SHT31;48512;48.552;9.380;2024-02-21T08:37:46;7.85;72.69
62464;SHT31;48512;48.552;9.380;2024-02-21T08:40:14;7.96;72.69
62464;SHT31;48512;48.552;9.380;2024-02-21T08:42:43;8.09;71.80
62464;SHT31;48512;48.552;9.380;2024-02-21T08:45:10;8.22;70.72
62464;SHT31;48512;48.552;9.380;2024-02-21T08:47:39;8.33;69.71
62464;SHT31;48512;48.552;9.380;2024-02-21T08:50:05;8.46;69.50
62464;SHT31;48512;48.552;9.380;2024-02-21T08:52:32;8.59;69.45
62464;SHT31;48512;48.552;9.380;2024-02-21T08:54:58;8.68;69.56
62464;SHT31;48512;48.552;9.380;2024-02-21T08:57:24;8.81;69.44
62464;SHT31;48512;48.552;9.380;2024-02-21T08:59:50;8.91;68.10
62464;SHT31;48512;48.552;9.380;2024-02-21T09:02:17;9.04;67.67
62464;SHT31;48512;48.552;9.380;2024-02-21T09:04:43;9.14;67.01
62464;SHT31;48512;48.552;9.380;2024-02-21T09:07:11;9.26;66.99
62464;SHT31;48512;48.552;9.380;2024-02-21T09:09:37;9.36;65.99
62464;SHT31;48512;48.552;9.380;2024-02-21T09:12:07;9.43;66.01
62464;SHT31;48512;48.552;9.380;2024-02-21T09:14:36;9.42;65.27
62464;SHT31;48512;48.552;9.380;2024-02-21T09:17:03;9.50;65.40
62464;SHT31;48512;48.552;9.380;2024-02-21T09:19:29;9.58;64.57
62464;SHT31;48512;48.552;9.380;2024-02-21T09:21:55;9.71;64.15
62464;SHT31;48512;48.552;9.380;2024-02-21T09:24:21;9.77;63.23
62464;SHT31;48512;48.552;9.380;2024-02-21T09:26:48;9.85;62.74
62464;SHT31;48512;48.552;9.380;2024-02-21T09:29:14;9.90;61.79
62464;SHT31;48512;48.552;9.380;2024-02-21T09:31:42;9.95;61.69
62464;SHT31;48512;48.552;9.380;2024-02-21T09:34:11;10.05;62.16
62464;SHT31;48512;48.552;9.380;2024-02-21T09:36:37;10.18;64.32
62464;SHT31;48512;48.552;9.380;2024-02-21T09:39:04;10.26;67.68
62464;SHT31;48512;48.552;9.380;2024-02-21T09:41:30;10.42;69.00
62464;SHT31;48512;48.552;9.380;2024-02-21T09:43:56;10.49;69.97
62464;SHT31;48512;48.552;9.380;2024-02-21T09:51:57;10.56;69.94
62464;SHT31;48512;48.552;9.380;2024-02-21T09:54:23;10.56;69.52
62464;SHT31;48512;48.552;9.380;2024-02-21T09:56:49;10.60;69.71
62464;SHT31;48512;48.552;9.380;2024-02-21T09:59:16;10.63;70.02
62464;SHT31;48512;48.552;9.380;2024-02-21T10:01:43;10.79;70.28
62464;SHT31;48512;48.552;9.380;2024-02-21T10:04:10;10.96;70.03
62464;SHT31;48512;48.552;9.380;2024-02-21T10:06:36;11.12;69.92
62464;SHT31;48512;48.552;9.380;2024-02-21T10:09:08;11.35;69.33
62464;SHT31;48512;48.552;9.380;2024-02-21T10:11:34;11.54;68.54
62464;SHT31;48512;48.552;9.380;2024-02-21T10:16:31;11.94;68.31
62464;SHT31;48512;48.552;9.380;2024-02-21T10:18:57;12.07;67.79
62464;SHT31;48512;48.552;9.380;2024-02-21T10:21:23;12.21;67.23
62464;SHT31;48512;48.552;9.380;2024-02-21T10:23:50;12.34;66.50
62464;SHT31;48512;48.552;9.380;2024-02-21T10:26:18;12.44;66.00
62464;SHT31;48512;48.552;9.380;2024-02-21T10:28:44;12.59;66.49
62464;SHT31;48512;48.552;9.380;2024-02-21T10:31:24;12.78;65.10
62464;SHT31;48512;48.552;9.380;2024-02-21T10:33:58;12.96;64.95
62464;SHT31;48512;48.552;9.380;2024-02-21T10:36:25;13.13;64.63
62464;SHT31;48512;48.552;9.380;2024-02-21T10:38:52;13.20;64.04
62464;SHT31;48512;48.552;9.380;2024-02-21T10:41:20;13.16;64.42
62464;SHT31;48512;48.552;9.380;2024-02-21T10:43:50;13.34;64.35
62464;SHT31;48512;48.552;9.380;2024-02-21T10:46:22;13.45;62.42
62464;SHT31;48512;48.552;9.380;2024-02-21T10:49:07;13.57;63.15
62464;SHT31;48512;48.552;9.380;2024-02-21T10:51:37;13.57;63.39
62464;SHT31;48512;48.552;9.380;2024-02-21T10:56:53;13.55;64.17
62464;SHT31;48512;48.552;9.380;2024-02-21T10:59:21;13.72;62.82
62464;SHT31;48512;48.552;9.380;2024-02-21T11:01:47;13.68;63.14
62464;SHT31;48512;48.552;9.380;2024-02-21T11:04:13;13.79;62.77
62464;SHT31;48512;48.552;9.380;2024-02-21T11:06:41;13.90;62.67
62464;SHT31;48512;48.552;9.380;2024-02-21T11:09:09;13.86;62.77
62464;SHT31;48512;48.552;9.380;2024-02-21T11:14:10;14.02;62.32
62464;SHT31;48512;48.552;9.380;2024-02-21T11:19:25;14.23;62.09
62464;SHT31;48512;48.552;9.380;2024-02-21T11:21:53;14.36;61.99
62464;SHT31;48512;48.552;9.380;2024-02-21T11:24:29;14.48;62.04
62464;SHT31;48512;48.552;9.380;2024-02-21T11:26:56;14.50;61.49
62464;SHT31;48512;48.552;9.380;2024-02-21T11:29:26;14.58;61.37
62464;SHT31;48512;48.552;9.380;2024-02-21T11:31:52;14.68;60.81
62464;SHT31;48512;48.552;9.380;2024-02-21T11:34:19;14.71;61.02
62464;SHT31;48512;48.552;9.380;2024-02-21T11:36:50;14.77;60.05
62464;SHT31;48512;48.552;9.380;2024-02-21T11:39:24;14.61;61.62
62464;SHT31;48512;48.552;9.380;2024-02-21T11:42:04;14.63;61.71
62464;SHT31;48512;48.552;9.380;2024-02-21T11:44:32;14.63;61.19
62464;SHT31;48512;48.552;9.380;2024-02-21T11:46:58;14.69;61.41
62464;SHT31;48512;48.552;9.380;2024-02-21T11:49:25;14.63;60.98
62464;SHT31;48512;48.552;9.380;2024-02-21T11:52:02;14.56;62.29
62464;SHT31;48512;48.552;9.380;2024-02-21T11:54:30;14.50;61.53
62464;SHT31;48512;48.552;9.380;2024-02-21T11:56:56;14.50;62.76
62464;SHT31;48512;48.552;9.380;2024-02-21T11:59:23;14.48;61.40
62464;SHT31;48512;48.552;9.380;2024-02-21T12:01:49;14.41;60.66
62464;SHT31;48512;48.552;9.380;2024-02-21T12:04:18;14.45;61.13
62464;SHT31;48512;48.552;9.380;2024-02-21T12:06:46;14.50;60.82
62464;SHT31;48512;48.552;9.380;2024-02-21T12:09:18;14.45;60.26
62464;SHT31;48512;48.552;9.380;2024-02-21T12:11:45;14.40;59.53
62464;SHT31;48512;48.552;9.380;2024-02-21T12:14:16;14.38;59.76
62464;SHT31;48512;48.552;9.380;2024-02-21T12:16:42;14.36;59.80
62464;SHT31;48512;48.552;9.380;2024-02-21T12:19:13;14.34;60.16
62464;SHT31;48512;48.552;9.380;2024-02-21T12:21:39;14.31;60.73
62464;SHT31;48512;48.552;9.380;2024-02-21T12:26:41;14.29;60.25
62464;SHT31;48512;48.552;9.380;2024-02-21T12:29:08;14.30;61.67
62464;SHT31;48512;48.552;9.380;2024-02-21T12:31:40;14.21;61.68
62464;SHT31;48512;48.552;9.380;2024-02-21T12:34:06;14.26;60.67
62464;SHT31;48512;48.552;9.380;2024-02-21T12:36:33;14.36;60.28
62464;SHT31;48512;48.552;9.380;2024-02-21T12:38:59;14.40;60.61
62464;SHT31;48512;48.552;9.380;2024-02-21T12:41:27;14.37;60.52
62464;SHT31;48512;48.552;9.380;2024-02-21T12:43:53;14.42;60.43
62464;SHT31;48512;48.552;9.380;2024-02-21T12:46:20;14.48;59.66
62464;SHT31;48512;48.552;9.380;2024-02-21T12:48:46;14.56;59.05
62464;SHT31;48512;48.552;9.380;2024-02-21T12:51:12;14.61;59.16
62464;SHT31;48512;48.552;9.380;2024-02-21T12:53:38;14.77;60.46
62464;SHT31;48512;48.552;9.380;2024-02-21T12:56:05;14.82;59.71
62464;SHT31;48512;48.552;9.380;2024-02-21T12:58:33;14.82;58.89
62464;SHT31;48512;48.552;9.380;2024-02-21T13:01:00;14.88;59.68
62464;SHT31;48512;48.552;9.380;2024-02-21T13:03:26;14.89;57.72
62464;SHT31;48512;48.552;9.380;2024-02-21T13:05:52;14.77;58.17
62464;SHT31;48512;48.552;9.380;2024-02-21T13:08:18;14.74;58.24
62464;SHT31;48512;48.552;9.380;2024-02-21T13:10:48;14.69;57.87
62464;SHT31;48512;48.552;9.380;2024-02-21T13:13:15;14.68;58.01
62464;SHT31;48512;48.552;9.380;2024-02-21T13:15:41;14.68;59.48
62464;SHT31;48512;48.552;9.380;2024-02-21T13:18:09;14.61;58.09
62464;SHT31;48512;48.552;9.380;2024-02-21T13:20:36;14.52;58.30
62464;SHT31;48512;48.552;9.380;2024-02-21T13:23:02;14.67;58.12
62464;SHT31;48512;48.552;9.380;2024-02-21T13:25:29;14.65;57.88
62464;SHT31;48512;48.552;9.380;2024-02-21T13:27:55;14.64;58.31
62464;SHT31;48512;48.552;9.380;2024-02-21T13:30:22;14.69;58.65
62464;SHT31;48512;48.552;9.380;2024-02-21T13:32:48;14.74;58.59
62464;SHT31;48512;48.552;9.380;2024-02-21T13:35:15;14.79;57.96
62464;SHT31;48512;48.552;9.380;2024-02-21T13:37:41;14.84;57.86
62464;SHT31;48512;48.552;9.380;2024-02-21T13:40:09;14.87;57.01
62464;SHT31;48512;48.552;9.380;2024-02-21T13:42:37;14.85;56.59
62464;SHT31;48512;48.552;9.380;2024-02-21T13:45:04;14.89;55.83
62464;SHT31;48512;48.552;9.380;2024-02-21T13:47:34;14.96;56.31
62464;SHT31;48512;48.552;9.380;2024-02-21T13:50:02;14.99;57.21
62464;SHT31;48512;48.552;9.380;2024-02-21T13:52:30;14.95;55.89
62464;SHT31;48512;48.552;9.380;2024-02-21T13:54:57;14.99;55.07
62464;SHT31;48512;48.552;9.380;2024-02-21T13:57:23;14.96;56.15
62464;SHT31;48512;48.552;9.380;2024-02-21T13:59:49;14.96;57.54
62464;SHT31;48512;48.552;9.380;2024-02-21T14:02:16;14.89;56.95
62464;SHT31;48512;48.552;9.380;2024-02-21T14:04:43;14.91;57.58
62464;SHT31;48512;48.552;9.380;2024-02-21T14:07:09;14.91;58.22
62464;SHT31;48512;48.552;9.380;2024-02-21T14:09:35;14.96;58.61
62464;SHT31;48512;48.552;9.380;2024-02-21T14:12:02;14.93;59.11
62464;SHT31;48512;48.552;9.380;2024-02-21T14:14:28;14.98;59.32
62464;SHT31;48512;48.552;9.380;2024-02-21T14:16:54;14.92;59.54
62464;SHT31;48512;48.552;9.380;2024-02-21T14:19:22;14.91;59.57
62464;SHT31;48512;48.552;9.380;2024-02-21T14:21:48;14.84;59.20
62464;SHT31;48512;48.552;9.380;2024-02-21T14:24:14;14.79;59.93
62464;SHT31;48512;48.552;9.380;2024-02-21T14:26:40;14.78;60.31
62464;SHT31;48512;48.552;9.380;2024-02-21T14:29:07;14.75;60.42
62464;SHT31;48512;48.552;9.380;2024-02-21T14:31:33;14.72;60.24
62464;SHT31;48512;48.552;9.380;2024-02-21T14:33:59;14.69;60.35
62464;SHT31;48512;48.552;9.380;2024-02-21T14:36:26;14.77;60.14
62464;SHT31;48512;48.552;9.380;2024-02-21T14:38:52;14.74;59.75
62464;SHT31;48512;48.552;9.380;2024-02-21T14:41:18;14.75;59.27
62464;SHT31;48512;48.552;9.380;2024-02-21T14:43:45;14.71;58.63
62464;SHT31;48512;48.552;9.380;2024-02-21T14:46:12;14.75;59.28
62464;SHT31;48512;48.552;9.380;2024-02-21T14:48:38;14.75;59.15
62464;SHT31;48512;48.552;9.380;2024-02-21T14:51:04;14.84;59.24
62464;SHT31;48512;48.552;9.380;2024-02-21T14:53:30;14.85;59.47
62464;SHT31;48512;48.552;9.380;2024-02-21T14:55:57;14.82;59.11
62464;SHT31;48512;48.552;9.380;2024-02-21T14:58:25;14.71;59.27
62464;SHT31;48512;48.552;9.380;2024-02-21T15:00:53;14.63;59.51
62464;SHT31;48512;48.552;9.380;2024-02-21T15:03:20;14.57;59.32
62464;SHT31;48512;48.552;9.380;2024-02-21T15:05:47;14.48;60.23
62464;SHT31;48512;48.552;9.380;2024-02-21T15:08:13;14.47;60.58
62464;SHT31;48512;48.552;9.380;2024-02-21T15:10:43;14.37;60.97
62464;SHT31;48512;48.552;9.380;2024-02-21T15:13:09;14.31;60.99
62464;SHT31;48512;48.552;9.380;2024-02-21T15:15:35;14.58;69.87
62464;SHT31;48512;48.552;9.380;2024-02-21T15:18:02;14.99;69.86
62464;SHT31;48512;48.552;9.380;2024-02-21T15:20:29;15.47;67.82
62464;SHT31;48512;48.552;9.380;2024-02-21T15:22:55;15.75;64.93
62464;SHT31;48512;48.552;9.380;2024-02-21T15:25:21;16.04;62.62
62464;SHT31;48512;48.552;9.380;2024-02-21T15:27:48;16.25;60.49
62464;SHT31;48512;48.552;9.380;2024-02-21T15:30:14;16.39;59.16
62464;SHT31;48512;48.552;9.380;2024-02-21T15:32:41;16.50;59.02
62464;SHT31;48512;48.552;9.380;2024-02-21T15:35:10;16.53;58.67
62464;SHT31;48512;48.552;9.380;2024-02-21T15:37:36;16.55;58.39
62464;SHT31;48512;48.552;9.380;2024-02-21T15:40:03;16.56;58.01
62464;SHT31;48512;48.552;9.380;2024-02-21T15:42:31;16.57;57.71
62464;SHT31;48512;48.552;9.380;2024-02-21T15:44:58;16.59;57.50
62464;SHT31;48512;48.552;9.380;2024-02-21T15:47:28;16.32;56.18
62464;SHT31;48512;48.552;9.380;2024-02-21T15:49:55;16.29;57.15
62464;SHT31;48512;48.552;9.380;2024-02-21T15:52:21;16.22;56.83
62464;SHT31;48512;48.552;9.380;2024-02-21T15:54:47;15.82;56.20
62464;SHT31;48512;48.552;9.380;2024-02-21T15:57:13;15.40;57.57
62464;SHT31;48512;48.552;9.380;2024-02-21T15:59:40;14.85;59.61
62464;SHT31;48512;48.552;9.380;2024-02-21T16:02:06;14.50;61.20